Saturday, May 28, 2016
16:07 UTC
  |  Log In   |  Register Free
Airport Search:

Enterprise Municipal Airport
(KEDN)

Enterprise Municipal Airport Diagram
No Airport Diagram Available

FAA data valid effective Mar 31 2016 - May 26 2016 (unless otherwise noted).

 
 
 
 
 
 
 
 
 
 
 
 
 
 
Current Aviation Weather for KEDN

Weather Summary


The most recent METAR observation for EDN was updated at: 12:53 UTC
METAR for KEDN is not available. Closest METAR is for KLOR
KEDN  (most recent observation was updatred at 28:15 UTC)
281555Z AUTO 09010KT 10SM CLR 28/20 A3007 RMK AO2

KLOR  (8.3 nm SW)   (most recent observation was updated at 28:15 UTC)
281553Z AUTO 11005KT 10SM CLR 29/18 A3006 RMK AO2 SLP175 T02890178 $

KOZR  (9.7 nm NW)   (most recent observation was updated at 28:15 UTC)
281558Z AUTO VRB04KT 10SM FEW190 29/19 A3007 RMK AO2 SLP182 T02930192

TAF for KEDN is not available.
KOZR  (9.7 nm NW)   (most recent observation was updatred at 28:16 UTC)
281600Z 2816/2922 18006KT 9999 FEW050 BKN060 QNH3000INS BECMG 2820/2821 21009KT 9000 -SHRA SCT040 BKN050 QNH3000INS BECMG 2823/2824 30006KT 9999 NSW SCT030 OVC040 QNH3002INS BECMG 2905/2906 VRB06KT 8000 BR FEW030 BKN080 QNH3005INS BECMG 2911/2912 35006KT 9999 NSW FEW070 BKN100 QNH3005INS TX33/2820Z TN18/2908Z


KDHN  (23.1 nm SW)   (most recent observation was updatred at 28:11 UTC)
281120Z 2812/2912 10005KT P6SM BKN200 FM281500 09005KT P6SM BKN060 BKN120 FM290100 VRB03KT P6SM FEW060 BKN120


KTOI  (34.1 nm SE)   (most recent observation was updatred at 28:11 UTC)
281120Z 2812/2912 12005KT P6SM BKN180 FM281600 14008KT P6SM SCT045 BKN100 FM290200 05003KT P6SM SCT250
GlobalAir.com is loading additional information.
 Current Weather at EDN
79.0 F° (26.0 C°)

South winds at 5.8 mph
Pressure:
30.09 in
Humidity:
70%
Wind:
South at 5.8 mph
Dew Point:
68.0 F° (20.0 C°)
Visibility:
10.00 mi
EDN NOAA Radar




Find All Airport Services Find A Hotel Find A Rental Car Find A Golf Course Find A Restaurant $100 Hamburger



Airport Weather Forecast for KEDN

Translated METAR for KEDN (1555 UTC)
METAR:
KEDN 281555Z AUTO 09010KT 10SM CLR 28/20 A3007 RMK AO2
Conditions at:
KEDN (Enterprise Muni, AL) observed 1555 UTC 28 May 2016
Temperature:
28°C (82.4°F)
Dewpoint:
20°C (68°F) [RH = 61.8]
Pressure:
30.07 inches Hg (1018.3 mb)
Winds:
from the E (090 degrees) at 11.5 mph (10 knots: 5.1 m/s)
Visibility:
10 mile(s)
Ceiling:
at least 12,000 feet AGL
Clouds:
Clear below 12,000 feet AGL
Remarks:
site is un-manned
site is automated and HAS a precipitation sensor

Translated TAF for KOZR (Cairns Aaf (Fort Rucker), AL) (1600 UTC)
TAF text:
KOZR 281600Z 2816/2922 18006KT 9999 FEW050 BKN060 QNH3000INS BECMG 2820/2821 21009KT 9000 -SHRA SCT040 BKN050 QNH3000INS BECMG 2823/2824 30006KT 9999 NSW SCT030 OVC040 QNH3002INS BECMG 2905/2906 VRB06KT 8000 BR FEW030 BKN080 QNH3005INS BECMG 2911/2912 35006KT 9999 NSW FEW070 BKN100 QNH3005INS TX33/2820Z TN18/2908Z
Forecast period:
Saturday May 28 2016 16:00 UTC - Sunday May 29 2016 22:00 UTC
Forecast type:
FROM: standard forecast or significant change
Winds:
from the N (350 degrees) at 6.9 mph (6 knots: 3.1 m/s)
Visibility:
Ceiling:
6,000 feet AGL
5,000 feet AGL
4,000 feet AGL
8,000 feet AGL
10,000 feet AGL
Clouds:
Few Clouds at 5,000 feet AGL
Broken Cloud Cover at 6,000 feet AGL
Scattered Clouds at 4,000 feet AGL
Broken Cloud Cover at 5,000 feet AGL
Scattered Clouds at 3,000 feet AGL
Overcast Skies at 4,000 feet AGL
Few Clouds at 3,000 feet AGL
Broken Cloud Cover at 8,000 feet AGL
Few Clouds at 7,000 feet AGL
Broken Cloud Cover at 10,000 feet AGL
Weather:
Light Shower(s) Rain
FBO's on the Field
FBO Company Facility Photos Services Transportation Aviation Fuel Prices: Prices include tax
Catering Weather Repair Courtesy Rental Type 100LL JetA JetA+ MOGAS 8087
 
Enterprise Municipal Airport

This FBO has not yet been rated
FS:Epic
Last Updated: Apr-26
Login to update fuel prices
SS:
Contact Enterprise Municipal AirportMore FBO Information
 
Add another FBO Facility Photos Catering Weather Repair Courtesy Rental Type 100LL JetA JetA+ MOGAS 8087
Services Transportation Aviation Fuel Prices: Prices include tax


model-print
model-print
model-print
model-print